createdAt,value
2018-04-01T00:01:58.568Z,16.90
2018-04-01T00:04:25.113Z,14.90
2018-04-01T00:06:51.560Z,15.23
2018-04-01T00:09:17.997Z,12.30
2018-04-01T00:11:44.439Z,8.93
2018-04-01T00:14:10.913Z,8.57
2018-04-01T00:16:37.328Z,8.40
2018-04-01T00:19:03.793Z,7.70
2018-04-01T00:21:30.225Z,7.50
2018-04-01T00:23:56.679Z,7.53
2018-04-01T00:26:23.096Z,8.27
2018-04-01T00:28:49.633Z,7.57
2018-04-01T00:31:16.054Z,8.37
2018-04-01T00:33:42.477Z,8.40
2018-04-01T00:36:08.921Z,9.23
2018-04-01T00:38:35.346Z,8.70
2018-04-01T00:41:01.794Z,8.80
2018-04-01T00:43:28.308Z,9.63
2018-04-01T00:45:54.764Z,9.97
2018-04-01T00:48:21.233Z,9.63
2018-04-01T00:50:47.697Z,10.73
2018-04-01T00:53:14.233Z,10.50
2018-04-01T00:55:40.669Z,11.20
2018-04-01T00:58:07.116Z,10.00
2018-04-01T01:00:33.566Z,10.50
2018-04-01T01:03:00.110Z,11.07
2018-04-01T01:05:26.576Z,11.23
2018-04-01T01:07:53.027Z,11.10
2018-04-01T01:10:19.478Z,10.97
2018-04-01T01:12:45.925Z,10.60
2018-04-01T01:15:12.396Z,10.20
2018-04-01T01:17:38.867Z,10.77
2018-04-01T01:20:05.309Z,9.90
2018-04-01T01:22:31.747Z,10.83
2018-04-01T01:24:58.178Z,10.10
2018-04-01T01:27:24.665Z,11.87
2018-04-01T01:29:51.112Z,15.53
2018-04-01T01:32:17.556Z,16.30
2018-04-01T01:34:44.036Z,19.20
2018-04-01T01:37:10.559Z,22.33
2018-04-01T01:39:36.989Z,18.30
2018-04-01T01:42:03.470Z,15.80
2018-04-01T01:44:29.889Z,16.47
2018-04-01T01:46:56.321Z,14.73
2018-04-01T01:49:26.088Z,13.13
2018-04-01T01:51:52.521Z,11.33
2018-04-01T01:54:18.973Z,12.20
2018-04-01T01:56:45.407Z,12.23
2018-04-01T01:59:11.828Z,12.67
2018-04-01T02:01:38.377Z,12.20
2018-04-01T02:04:04.858Z,11.90
2018-04-01T02:06:31.277Z,12.47
2018-04-01T02:08:57.737Z,12.43
2018-04-01T02:11:24.172Z,12.63
2018-04-01T02:13:50.603Z,12.00
2018-04-01T02:16:17.058Z,11.70
2018-04-01T02:18:43.489Z,12.10
2018-04-01T02:21:09.937Z,12.30
2018-04-01T02:23:36.369Z,13.57
2018-04-01T02:26:02.834Z,12.80
2018-04-01T02:28:29.259Z,12.17
2018-04-01T02:30:55.714Z,11.67
2018-04-01T02:33:22.150Z,15.10
2018-04-01T02:35:48.589Z,15.83
2018-04-01T02:38:15.032Z,16.87
2018-04-01T02:40:41.462Z,12.80
2018-04-01T02:43:07.897Z,14.67
2018-04-01T02:45:34.348Z,15.33
2018-04-01T02:48:00.845Z,12.90
2018-04-01T02:50:27.293Z,14.70
2018-04-01T02:52:53.715Z,13.73
2018-04-01T02:55:20.141Z,12.87
2018-04-01T02:57:46.598Z,14.60
2018-04-01T03:00:13.066Z,13.60
2018-04-01T03:02:39.509Z,13.20
2018-04-01T03:05:05.939Z,14.50
2018-04-01T03:07:32.386Z,14.63
2018-04-01T03:09:58.828Z,13.00
2018-04-01T03:12:25.269Z,13.10
2018-04-01T03:14:51.780Z,14.37
2018-04-01T03:17:18.212Z,14.73
2018-04-01T03:19:44.690Z,12.53
2018-04-01T03:22:11.122Z,13.40
2018-04-01T03:24:37.581Z,14.63
2018-04-01T03:27:04.004Z,15.43
2018-04-01T03:29:30.466Z,14.50
2018-04-01T03:31:56.925Z,14.90
2018-04-01T03:34:23.350Z,16.13
2018-04-01T03:36:49.806Z,17.20
2018-04-01T03:39:16.246Z,17.23
2018-04-01T03:41:42.685Z,19.70
2018-04-01T03:44:09.619Z,19.60
2018-04-01T03:46:36.065Z,20.30
2018-04-01T03:49:02.502Z,20.43
2018-04-01T03:51:28.960Z,18.57
2018-04-01T03:53:55.537Z,20.97
2018-04-01T03:56:21.961Z,20.60
2018-04-01T03:58:48.413Z,21.73
2018-04-01T04:01:14.846Z,19.23
2018-04-01T04:03:41.289Z,20.63
2018-04-01T04:06:07.737Z,19.57
2018-04-01T04:08:34.206Z,20.17
2018-04-01T04:11:00.653Z,18.20
2018-04-01T04:13:27.092Z,17.00
2018-04-01T04:15:53.601Z,14.87
2018-04-01T04:18:20.140Z,14.37
2018-04-01T04:20:46.588Z,14.17
2018-04-01T04:23:13.025Z,14.30
2018-04-01T04:25:39.476Z,13.63
2018-04-01T04:28:06.041Z,14.37
2018-04-01T04:30:32.481Z,13.00
2018-04-01T04:32:58.949Z,12.47
2018-04-01T04:35:25.387Z,12.37
2018-04-01T04:37:51.836Z,12.43
2018-04-01T04:40:18.276Z,12.87
2018-04-01T04:42:44.737Z,12.27
2018-04-01T04:45:11.199Z,12.67
2018-04-01T04:47:37.699Z,10.83
2018-04-01T04:50:04.126Z,8.40
2018-04-01T04:52:30.689Z,10.33
2018-04-01T04:54:57.113Z,9.17
2018-04-01T04:57:23.581Z,8.87
2018-04-01T04:59:50.017Z,10.50
2018-04-01T05:02:16.432Z,9.33
2018-04-01T05:04:42.898Z,10.70
2018-04-01T05:07:09.324Z,11.40
2018-04-01T05:09:35.777Z,12.00
2018-04-01T05:12:02.252Z,11.97
2018-04-01T05:14:29.682Z,12.77
2018-04-01T05:16:56.168Z,13.27
2018-04-01T05:19:22.629Z,13.07
2018-04-01T05:21:49.085Z,14.50
2018-04-01T05:24:15.637Z,13.63
2018-04-01T05:26:42.117Z,14.33
2018-04-01T05:29:08.569Z,16.47
2018-04-01T05:31:35.079Z,15.50
2018-04-01T05:34:01.550Z,16.20
2018-04-01T05:36:28.306Z,15.87
2018-04-01T05:38:54.761Z,15.50
2018-04-01T05:41:21.226Z,14.00
2018-04-01T05:43:47.673Z,14.43
2018-04-01T05:46:14.165Z,13.63
2018-04-01T05:48:40.618Z,14.90
2018-04-01T05:51:07.050Z,14.80
2018-04-01T05:53:33.498Z,14.57
2018-04-01T05:56:00.002Z,15.63
2018-04-01T05:58:26.457Z,14.47
2018-04-01T06:00:52.908Z,16.57
2018-04-01T06:03:19.362Z,16.77
2018-04-01T06:05:45.813Z,14.90
2018-04-01T06:08:12.258Z,16.90
2018-04-01T06:10:38.715Z,16.60
2018-04-01T06:13:05.395Z,17.40
2018-04-01T06:15:31.932Z,17.73
2018-04-01T06:17:58.402Z,17.30
2018-04-01T06:20:24.849Z,17.20
2018-04-01T06:22:51.326Z,15.20
2018-04-01T06:25:17.767Z,17.67
2018-04-01T06:27:44.221Z,16.10
2018-04-01T06:30:10.678Z,17.20
2018-04-01T06:32:38.081Z,18.43
2018-04-01T06:35:04.599Z,16.43
2018-04-01T06:37:31.046Z,18.77
2018-04-01T06:39:57.582Z,17.50
2018-04-01T06:42:23.970Z,19.00
2018-04-01T06:44:50.430Z,19.37
2018-04-01T06:47:16.879Z,15.47
2018-04-01T06:49:43.407Z,17.73
2018-04-01T06:52:09.858Z,16.50
2018-04-01T06:54:36.439Z,16.60
2018-04-01T06:57:02.915Z,15.03
2018-04-01T06:59:29.328Z,15.67
2018-04-01T07:01:55.785Z,14.93
2018-04-01T07:04:22.245Z,16.10
2018-04-01T07:06:48.710Z,15.40
2018-04-01T07:09:15.175Z,16.60
2018-04-01T07:11:41.614Z,14.20
2018-04-01T07:14:08.716Z,15.63
2018-04-01T07:16:35.144Z,13.90
2018-04-01T07:19:01.616Z,13.50
2018-04-01T07:21:28.071Z,11.53
2018-04-01T07:23:54.563Z,11.90
2018-04-01T07:26:21.153Z,12.70
2018-04-01T07:28:47.609Z,13.20
2018-04-01T07:31:14.623Z,12.50
2018-04-01T07:33:41.156Z,14.20
2018-04-01T07:36:08.502Z,12.60
2018-04-01T07:38:34.982Z,13.83
2018-04-01T07:41:01.432Z,13.97
2018-04-01T07:43:27.880Z,12.93
2018-04-01T07:45:54.363Z,11.60
2018-04-01T07:48:20.826Z,12.43
2018-04-01T07:50:47.286Z,12.30
2018-04-01T07:53:13.853Z,13.47
2018-04-01T07:55:40.326Z,13.43
2018-04-01T07:58:06.825Z,13.13
2018-04-01T08:00:34.118Z,13.17
2018-04-01T08:03:00.586Z,13.33
2018-04-01T08:05:28.292Z,13.47
2018-04-01T08:07:55.073Z,14.20
2018-04-01T08:10:22.491Z,13.67
2018-04-01T08:12:48.999Z,13.60
2018-04-01T08:15:15.844Z,15.50
2018-04-01T08:17:42.706Z,14.90
2018-04-01T08:20:09.174Z,16.13
2018-04-01T08:22:35.610Z,19.57
2018-04-01T08:25:02.884Z,16.30
2018-04-01T08:27:29.328Z,15.87
2018-04-01T08:29:55.779Z,16.73
2018-04-01T08:32:22.247Z,16.60
2018-04-01T08:34:49.084Z,17.83
2018-04-01T08:37:15.543Z,17.83
2018-04-01T08:39:41.982Z,16.67
2018-04-01T08:42:08.458Z,17.73
2018-04-01T08:44:34.897Z,18.40
2018-04-01T08:47:02.178Z,18.03
2018-04-01T08:49:28.678Z,16.23
2018-04-01T08:51:55.177Z,16.60
2018-04-01T08:54:21.622Z,16.17
2018-04-01T08:56:48.106Z,16.60
2018-04-01T08:59:14.550Z,16.90
2018-04-01T09:01:41.841Z,19.40
2018-04-01T09:04:08.790Z,17.17
2018-04-01T09:06:35.289Z,19.17
2018-04-01T09:11:34.725Z,21.13
2018-04-01T09:14:01.342Z,20.73
2018-04-01T09:16:27.811Z,20.80
2018-04-01T09:18:54.260Z,20.77
2018-04-01T09:21:20.688Z,16.07
2018-04-01T09:23:47.547Z,18.63
2018-04-01T09:26:13.973Z,16.17
2018-04-01T09:28:40.653Z,15.97
2018-04-01T09:31:07.123Z,17.43
2018-04-01T09:33:33.623Z,19.87
2018-04-01T09:36:00.875Z,20.67
2018-04-01T09:38:27.674Z,22.10
2018-04-01T09:40:54.111Z,22.27
2018-04-01T09:43:20.560Z,23.20
2018-04-01T09:45:47.019Z,22.13
2018-04-01T09:48:14.230Z,23.20
2018-04-01T09:50:40.691Z,25.20
2018-04-01T09:53:07.154Z,24.47
2018-04-01T09:55:33.627Z,22.23
2018-04-01T09:58:00.131Z,22.87
2018-04-01T10:00:26.629Z,23.90
2018-04-01T10:02:53.436Z,23.73
2018-04-01T10:05:20.145Z,25.10
2018-04-01T10:07:47.711Z,23.93
2018-04-01T10:10:14.443Z,23.53
2018-04-01T10:12:41.122Z,21.87
2018-04-01T10:15:07.778Z,22.90
2018-04-01T10:17:34.487Z,25.23
2018-04-01T10:20:01.241Z,23.30
2018-04-01T10:22:27.915Z,24.30
2018-04-01T10:24:55.262Z,22.93
2018-04-01T10:27:21.983Z,19.07
2018-04-01T10:29:49.420Z,17.47
2018-04-01T10:32:16.437Z,14.93
2018-04-01T10:34:43.194Z,15.43
2018-04-01T10:37:09.909Z,16.60
2018-04-01T10:39:36.635Z,16.90
2018-04-01T10:42:03.350Z,19.40
2018-04-01T10:44:30.069Z,20.30
2018-04-01T10:46:56.824Z,18.10
2018-04-01T10:49:23.583Z,20.90
2018-04-01T10:51:50.261Z,21.43
2018-04-01T10:54:16.718Z,19.00
2018-04-01T10:56:43.187Z,18.50
2018-04-01T10:59:10.223Z,17.27
2018-04-01T11:01:36.661Z,18.87
2018-04-01T11:04:03.102Z,20.13
2018-04-01T11:06:29.577Z,16.67
2018-04-01T11:08:56.162Z,16.20
2018-04-01T11:11:22.829Z,13.20
2018-04-01T11:13:49.774Z,14.50
2018-04-01T11:16:16.235Z,14.70
2018-04-01T11:18:42.730Z,14.80
2018-04-01T11:21:09.238Z,16.40
2018-04-01T11:23:35.705Z,19.43
2018-04-01T11:26:02.199Z,18.67
2018-04-01T11:28:28.654Z,17.77
2018-04-01T11:30:55.114Z,18.33
2018-04-01T11:33:22.178Z,20.03
2018-04-01T11:35:49.312Z,20.07
2018-04-01T11:38:16.401Z,23.70
2018-04-01T11:40:42.963Z,20.77
2018-04-01T11:43:09.455Z,19.33
2018-04-01T11:45:37.376Z,22.97
2018-04-01T11:48:04.771Z,22.77
2018-04-01T11:50:31.222Z,21.90
2018-04-01T11:52:57.678Z,19.93
2018-04-01T11:55:24.826Z,18.20
2018-04-01T11:57:52.024Z,19.00
2018-04-01T12:00:18.511Z,17.73
2018-04-01T12:02:45.387Z,18.90
2018-04-01T12:05:11.821Z,20.40
2018-04-01T12:07:39.504Z,21.17
2018-04-01T12:10:06.424Z,20.03
2018-04-01T12:12:32.873Z,20.60
2018-04-01T12:14:59.370Z,19.00
2018-04-01T12:17:25.839Z,17.77
2018-04-01T12:19:52.316Z,17.03
2018-04-01T12:22:18.772Z,21.13
2018-04-01T12:24:47.013Z,19.63
2018-04-01T12:27:16.233Z,18.30
2018-04-01T12:29:44.843Z,19.23
2018-04-01T12:32:12.114Z,23.70
2018-04-01T12:34:38.559Z,18.70
2018-04-01T12:37:05.019Z,22.13
2018-04-01T12:39:32.133Z,21.73
2018-04-01T12:41:59.410Z,22.60
2018-04-01T12:44:26.902Z,31.00
2018-04-01T12:46:53.359Z,29.77
2018-04-01T12:49:20.302Z,30.00
2018-04-01T12:51:47.433Z,33.97
2018-04-01T12:54:14.819Z,21.70
2018-04-01T12:56:44.113Z,22.13
2018-04-01T12:59:11.115Z,21.40
2018-04-01T13:01:37.605Z,22.17
2018-04-01T13:04:04.689Z,20.73
2018-04-01T13:06:33.310Z,20.87
2018-04-01T13:09:00.542Z,21.43
2018-04-01T13:11:27.014Z,20.90
2018-04-01T13:13:53.467Z,21.20
2018-04-01T13:16:20.917Z,22.10
2018-04-01T13:18:47.409Z,22.33
2018-04-01T13:21:15.183Z,22.27
2018-04-01T13:23:41.973Z,24.63
2018-04-01T13:26:08.976Z,22.80
2018-04-01T13:28:36.285Z,24.20
2018-04-01T13:31:02.719Z,21.00
2018-04-01T13:33:31.956Z,21.50
2018-04-01T13:35:58.420Z,22.93
2018-04-01T13:38:26.186Z,22.03
2018-04-01T13:40:52.663Z,25.13
2018-04-01T13:43:19.139Z,29.13
2018-04-01T13:45:45.638Z,27.67
2018-04-01T13:48:12.115Z,22.20
2018-04-01T13:50:38.589Z,22.60
2018-04-01T13:53:05.138Z,23.70
2018-04-01T13:55:34.696Z,22.00
2018-04-01T13:58:01.131Z,22.70
2018-04-01T14:00:28.119Z,24.23
2018-04-01T14:02:54.569Z,22.83
2018-04-01T14:05:21.050Z,24.20
2018-04-01T14:07:47.492Z,22.53
2018-04-01T14:10:13.957Z,25.50
2018-04-01T14:12:40.421Z,25.53
2018-04-01T14:15:06.866Z,24.00
2018-04-01T14:17:34.747Z,26.53
2018-04-01T14:20:01.237Z,24.53
2018-04-01T14:22:27.653Z,24.00
2018-04-01T14:24:55.691Z,24.20
2018-04-01T14:27:24.074Z,28.20
2018-04-01T14:29:51.526Z,26.17
2018-04-01T14:32:17.941Z,23.87
2018-04-01T14:34:45.755Z,26.07
2018-04-01T14:37:12.192Z,25.63
2018-04-01T14:39:38.820Z,28.40
2018-04-01T14:42:06.232Z,28.80
2018-04-01T14:44:33.525Z,28.20
2018-04-01T14:47:00.036Z,26.40
2018-04-01T14:49:26.462Z,25.53
2018-04-01T14:51:53.577Z,24.53
2018-04-01T14:54:20.145Z,26.87
2018-04-01T14:56:46.848Z,28.83
2018-04-01T14:59:16.242Z,28.50
2018-04-01T15:01:43.349Z,30.30
2018-04-01T15:04:09.805Z,31.00
2018-04-01T15:06:36.288Z,31.80
2018-04-01T15:09:02.862Z,33.13
2018-04-01T15:11:29.425Z,32.40
2018-04-01T15:13:56.756Z,29.73
2018-04-01T15:16:23.825Z,32.53
2018-04-01T15:18:50.274Z,33.40
2018-04-01T15:21:16.754Z,34.07
2018-04-01T15:23:43.194Z,31.83
2018-04-01T15:26:09.654Z,31.17
2018-04-01T15:28:36.097Z,24.87
2018-04-01T15:31:02.545Z,18.73
2018-04-01T15:33:29.769Z,16.37
2018-04-01T15:35:56.231Z,15.07
2018-04-01T15:38:22.649Z,17.63
2018-04-01T15:40:50.138Z,20.77
2018-04-01T15:43:16.577Z,25.70
2018-04-01T15:45:43.624Z,25.20
2018-04-01T15:48:10.078Z,29.67
2018-04-01T15:50:37.524Z,30.13
2018-04-01T15:53:03.978Z,27.73
2018-04-01T15:55:30.420Z,33.93
2018-04-01T15:57:56.939Z,41.60
2018-04-01T16:00:23.406Z,43.97
2018-04-01T16:02:50.865Z,40.80
2018-04-01T16:05:17.313Z,41.17
2018-04-01T16:07:47.549Z,44.47
2018-04-01T16:10:14.001Z,42.57
2018-04-01T16:12:41.298Z,45.83
2018-04-01T16:15:10.764Z,47.03
2018-04-01T16:17:37.205Z,46.17
2018-04-01T16:20:03.652Z,47.40
2018-04-01T16:22:30.116Z,45.10
2018-04-01T16:24:59.600Z,46.07
2018-04-01T16:27:26.038Z,51.53
2018-04-01T16:29:52.894Z,47.60
2018-04-01T16:32:20.302Z,50.77
2018-04-01T16:34:47.561Z,49.47
2018-04-01T16:37:14.020Z,51.33
2018-04-01T16:39:40.648Z,53.93
2018-04-01T16:42:07.683Z,56.77
2018-04-01T16:44:35.092Z,57.83
2018-04-01T16:47:03.775Z,53.90
2018-04-01T16:49:30.403Z,51.30
2018-04-01T16:51:56.894Z,54.27
2018-04-01T16:54:23.368Z,49.67
2018-04-01T16:56:49.903Z,46.27
2018-04-01T16:59:17.211Z,44.67
2018-04-01T17:01:44.705Z,42.77
2018-04-01T17:04:11.176Z,42.90
2018-04-01T17:06:37.640Z,48.70
2018-04-01T17:09:04.202Z,48.53
2018-04-01T17:11:30.737Z,48.83
2018-04-01T17:13:57.287Z,55.30
2018-04-01T17:16:24.917Z,48.40
2018-04-01T17:18:52.573Z,46.93
2018-04-01T17:21:19.919Z,42.70
2018-04-01T17:23:47.086Z,36.27
2018-04-01T17:26:15.400Z,35.90
2018-04-01T17:28:41.845Z,36.27
2018-04-01T17:31:08.996Z,31.23
2018-04-01T17:33:35.498Z,32.83
2018-04-01T17:36:03.518Z,31.00
2018-04-01T17:38:29.944Z,32.13
2018-04-01T17:40:56.405Z,30.30
2018-04-01T17:43:23.709Z,30.23
2018-04-01T17:45:50.176Z,30.20
2018-04-01T17:48:17.732Z,33.63
2018-04-01T17:50:44.225Z,28.67
2018-04-01T17:53:11.453Z,25.90
2018-04-01T17:55:37.915Z,28.30
2018-04-01T17:58:04.404Z,29.00
2018-04-01T18:00:31.794Z,31.07
2018-04-01T18:02:59.071Z,29.80
2018-04-01T18:05:26.341Z,28.00
2018-04-01T18:07:53.878Z,27.03
2018-04-01T18:10:21.138Z,25.20
2018-04-01T18:12:47.649Z,26.17
2018-04-01T18:15:14.113Z,26.50
2018-04-01T18:17:40.634Z,23.10
2018-04-01T18:20:07.590Z,25.07
2018-04-01T18:22:34.044Z,24.20
2018-04-01T18:25:00.535Z,24.23
2018-04-01T18:27:26.975Z,24.87
2018-04-01T18:29:53.599Z,27.50
2018-04-01T18:32:20.693Z,26.37
2018-04-01T18:34:47.159Z,26.47
2018-04-01T18:37:14.378Z,26.67
2018-04-01T18:39:42.797Z,26.67
2018-04-01T18:42:09.262Z,25.87
2018-04-01T18:44:35.837Z,24.27
2018-04-01T18:47:03.230Z,23.53
2018-04-01T18:49:29.692Z,25.10
2018-04-01T18:51:56.144Z,23.10
2018-04-01T18:54:22.707Z,24.60
2018-04-01T18:56:50.104Z,26.37
2018-04-01T18:59:16.585Z,25.53
2018-04-01T19:01:44.022Z,26.10
2018-04-01T19:04:11.215Z,25.77
2018-04-01T19:06:38.602Z,25.60
2018-04-01T19:09:06.196Z,24.90
2018-04-01T19:11:33.595Z,24.23
2018-04-01T19:14:03.781Z,25.23
2018-04-01T19:16:30.514Z,26.10
2018-04-01T19:19:00.052Z,28.10
2018-04-01T19:21:26.829Z,27.17
2018-04-01T19:23:53.545Z,27.37
2018-04-01T19:26:21.202Z,28.90
2018-04-01T19:28:48.573Z,29.17
2018-04-01T19:31:15.272Z,28.83
2018-04-01T19:33:42.000Z,30.73
2018-04-01T19:36:10.480Z,28.97
2018-04-01T19:38:37.899Z,30.33
2018-04-01T19:41:04.608Z,30.43
2018-04-01T19:43:32.255Z,30.07
2018-04-01T19:45:59.021Z,31.60
2018-04-01T19:48:25.714Z,32.33
2018-04-01T19:50:52.408Z,31.43
2018-04-01T19:53:19.237Z,31.73
2018-04-01T19:55:45.947Z,34.40
2018-04-01T19:58:13.447Z,34.57
2018-04-01T20:00:40.159Z,31.53
2018-04-01T20:03:06.933Z,35.73
2018-04-01T20:05:34.567Z,35.23
2018-04-01T20:08:01.277Z,34.70
2018-04-01T20:10:28.715Z,36.83
2018-04-01T20:12:55.406Z,36.70
2018-04-01T20:15:22.148Z,37.27
2018-04-01T20:17:49.741Z,37.60
2018-04-01T20:20:16.444Z,39.93
2018-04-01T20:22:43.945Z,42.40
2018-04-01T20:25:10.677Z,44.60
2018-04-01T20:27:38.382Z,42.20
2018-04-01T20:30:05.099Z,43.20
2018-04-01T20:32:32.639Z,43.73
2018-04-01T20:35:00.054Z,48.73
2018-04-01T20:37:27.509Z,57.07
2018-04-01T20:39:54.228Z,55.70
2018-04-01T20:42:22.488Z,63.03
2018-04-01T20:44:50.030Z,56.30
2018-04-01T20:47:16.753Z,54.53
2018-04-01T20:49:44.163Z,60.50
2018-04-01T20:52:11.759Z,59.60
2018-04-01T20:54:38.483Z,65.17
2018-04-01T20:57:07.661Z,69.53
2018-04-01T20:59:34.455Z,64.83
2018-04-01T21:02:02.051Z,65.70
2018-04-01T21:04:28.738Z,62.97
2018-04-01T21:06:55.446Z,68.77
2018-04-01T21:09:22.165Z,61.73
2018-04-01T21:11:48.860Z,61.20
2018-04-01T21:14:15.589Z,59.37
2018-04-01T21:16:42.382Z,62.00
2018-04-01T21:19:09.118Z,61.57
2018-04-01T21:21:35.834Z,59.70
2018-04-01T21:24:02.594Z,64.57
2018-04-01T21:26:29.421Z,61.30
2018-04-01T21:28:56.190Z,63.47
2018-04-01T21:31:22.906Z,61.60
2018-04-01T21:33:49.607Z,60.90
2018-04-01T21:36:16.486Z,60.63
2018-04-01T21:38:43.189Z,58.70
2018-04-01T21:41:09.901Z,54.63
2018-04-01T21:43:36.597Z,58.90
2018-04-01T21:46:03.413Z,56.47
2018-04-01T21:48:30.143Z,54.87
2018-04-01T21:50:56.908Z,59.10
2018-04-01T21:53:23.623Z,54.80
2018-04-01T21:55:50.327Z,52.77
2018-04-01T21:58:17.050Z,53.20
2018-04-01T22:00:43.762Z,54.40
2018-04-01T22:03:10.448Z,56.97
2018-04-01T22:05:37.149Z,52.27
2018-04-01T22:08:03.855Z,57.50
2018-04-01T22:10:30.555Z,55.70
2018-04-01T22:12:57.259Z,54.50
2018-04-01T22:15:23.962Z,54.70
2018-04-01T22:17:50.681Z,56.73
2018-04-01T22:20:17.430Z,55.47
2018-04-01T22:22:50.052Z,53.87
2018-04-01T22:25:16.762Z,54.03
2018-04-01T22:27:43.471Z,58.13
2018-04-01T22:30:10.291Z,57.27
2018-04-01T22:32:36.952Z,57.17
2018-04-01T22:35:03.674Z,57.20
2018-04-01T22:37:30.487Z,59.77
2018-04-01T22:39:57.217Z,57.53
2018-04-01T22:42:23.900Z,56.43
2018-04-01T22:44:50.614Z,58.97
2018-04-01T22:47:17.313Z,57.27
2018-04-01T22:49:44.046Z,58.07
2018-04-01T22:52:10.770Z,56.37
2018-04-01T22:54:37.529Z,56.60
2018-04-01T22:57:09.267Z,60.00
2018-04-01T22:59:35.994Z,56.77
2018-04-01T23:02:02.686Z,54.80
2018-04-01T23:04:29.417Z,52.43
2018-04-01T23:06:56.147Z,55.40
2018-04-01T23:09:22.837Z,51.57
2018-04-01T23:11:49.534Z,53.27
2018-04-01T23:14:16.213Z,54.20
2018-04-01T23:16:42.936Z,56.10
2018-04-01T23:19:09.630Z,57.47
2018-04-01T23:21:36.341Z,57.30
2018-04-01T23:24:03.008Z,56.90
2018-04-01T23:26:29.698Z,57.67
2018-04-01T23:28:56.537Z,61.50
2018-04-01T23:31:23.243Z,63.17
2018-04-01T23:33:49.947Z,60.00
2018-04-01T23:36:16.641Z,59.60
2018-04-01T23:38:43.401Z,60.60
2018-04-01T23:41:11.116Z,53.83
2018-04-01T23:43:37.905Z,55.47
2018-04-01T23:46:04.617Z,51.37
2018-04-01T23:48:31.351Z,55.97
2018-04-01T23:50:58.061Z,56.80
2018-04-01T23:53:24.736Z,63.40
2018-04-01T23:55:51.438Z,60.67
2018-04-01T23:58:18.129Z,67.83
